Ash Fork, Arizona
Current Conditions -  °F | °C
As of 2:53 AM on Saturday 22 Nov 2014 (Local Time) from KPRC Reporting Station
Clear Clear  
Wind Chill: 23°   Ceiling: Unl
Heat Index: 30°   Visibility: 10mi
Dew Point: 19°   Wind: 7mph
Humidity: 64%   Direction: 180°S
Pressure: 30.11"   Gusts: NA
Location:  35.23°N, 112.49°W
Report Text: KPRC 220953Z 18006KT 10SM CLR M01/M07 A3011 RMK AO2 SLP169 T10111072
Loading
Personal Weather Stations






























Interactive Weather Map New forecast layout! Learn more

10-Day Weather Forecast

Advertisements
Track Severe Weather on mobile